Weather observations for the past three days for
Fort Payne, Isbell Field Airport
Imperial (Metric)
Date Time (cdt) Wind (mph) Vis. (mi.) Weather Sky Cond. Temperature (ºF) Relative Humidity Wind Chill (°F) Heat Index (°F) Pressure Precipitation (in)
Air Dwpt 6 hour altimeter (in) sea level (mb) 1 hr 3 hr 6 hr
Max. Min.
02 14:35 N 16 G 21 10.00 Fair CLR 66.2 35.4 32% 29.97 0.0
02 14:15 N 12 G 18 10.00 Fair CLR 64.9 35.2 33% 29.97 0.0
02 13:55 N 15 G 22 10.00 Fair CLR 65.1 35.1 33% 29.97 0.0
02 13:35 NW 10 10.00 Fair CLR 64 37.6 38% 29.98 0.0
02 13:15 N 9 10.00 Fair CLR 63.7 36.5 37% 29.98 0.0
02 12:55 N 15 G 20 10.00 Fair CLR 63.7 34.7 64.6 50.7 34% 29.98 0.0
02 12:35 N 10 G 20 10.00 Fair CLR 62.6 32.5 32% 29.99 0.0
02 12:15 N 17 G 23 10.00 Fair CLR 62.4 32.4 32% 29.99 0.0
02 11:55 NE 13 10.00 Fair CLR 61.3 36.1 39% 30 0.0
02 11:35 N 12 10.00 Fair CLR 61 37 41% 30 0.0
02 11:15 N 14 10.00 Fair CLR 59.5 38.1 45% 30 0.0
02 10:55 N 9 10.00 Fair CLR 58.8 38.5 47% 30 0.0
02 10:35 NE 7 10.00 Fair CLR 58.1 38.8 49% 30 0.0
02 10:15 N 8 10.00 Fair CLR 57.7 39.9 52% 30 0.0
02 09:55 N 12 10.00 Fair CLR 57.4 40.3 53% 29.99 0.0
02 09:35 N 9 G 21 10.00 Fair CLR 56.5 38.8 52% 29.98 0.0
02 09:15 N 7 10.00 Fair CLR 55.8 40.8 57% 29.97 0.0
02 08:55 N 9 10.00 Fair CLR 55.4 40.8 58% 29.97 0.0
02 08:35 N 9 10.00 Fair CLR 55.2 40.6 58% 29.97 0.0
02 08:15 N 8 10.00 Fair CLR 54.5 41 61% 29.97 0.0
02 07:55 NE 5 10.00 Fair CLR 53.2 41.5 65% 29.96 0.0
02 07:35 Calm 10.00 Fair CLR 52.3 41.2 66% 29.96 0.0
02 07:15 NE 3 10.00 Fair CLR 52.2 40.3 64% 29.96 0.0
02 06:55 Calm 10.00 Fair CLR 50.5 42.8 55.2 50.4 75% 29.96 0.0
02 06:35 Calm 10.00 Fair CLR 50.9 42.1 72% 29.95 0.0
02 06:15 E 3 10.00 Fair CLR 51.4 39.4 64% 29.95 0.0
02 05:55 Calm 10.00 Fair CLR 51.8 39.4 63% 29.95 0.0
02 05:35 Calm 10.00 Fair CLR 52 38.1 59% 29.94 0.0
02 05:15 NE 3 10.00 Fair CLR 52.7 37.2 56% 29.93 0.0
02 04:55 NE 6 10.00 Fair CLR 52.5 37.2 56% 29.93 0.0
02 04:35 NE 7 10.00 Fair CLR 52.3 37.2 57% 29.94 0.0
02 04:15 N 5 10.00 Fair CLR 52.9 36.9 55% 29.95 0.0
02 03:55 NE 6 10.00 Fair CLR 52.9 36.7 54% 29.93 0.0
02 03:35 NE 6 10.00 Fair CLR 53.1 36.9 54% 29.93 0.0
02 03:15 NE 5 10.00 Fair CLR 53.4 36.3 52% 29.93 0.0
02 02:55 N 7 10.00 Fair CLR 53.8 36.3 52% 29.93 0.0
02 02:35 NE 7 10.00 Fair CLR 54.1 36.3 51% 29.94 0.0
02 02:15 N 8 10.00 Partly Cloudy SCT120 54.7 36.1 50% 29.95 0.0
02 01:35 N 8 10.00 Partly Cloudy SCT120 55 37.6 52% 29.96 0.0
02 01:15 N 6 10.00 Partly Cloudy SCT120 55 39.4 56% 29.96 0.0
02 00:55 N 6 10.00 Partly Cloudy SCT120 55.2 40.3 60.6 55 57% 29.96 0.0
02 00:35 N 6 10.00 Fair CLR 55.8 41.2 58% 29.96 0.0
02 00:15 N 7 10.00 Fair CLR 56.3 42.4 60% 29.95 0.0
01 23:55 NE 7 10.00 Fair CLR 56.3 44.4 65% 29.95 0.0
01 23:35 N 5 10.00 Fair CLR 55.8 48.4 76% 29.95 0.0
01 23:15 NE 5 10.00 Fair CLR 55.9 49.8 80% 29.95 0.0
01 22:55 Calm 10.00 Fair CLR 55.4 53.1 92% 29.95 0.0
01 22:35 E 5 10.00 Fair CLR 56.3 52.5 87% 29.96 0.0
01 22:15 Calm 10.00 Fair CLR 56.1 53.4 91% 29.97 0.0
01 21:55 Calm 10.00 Fair CLR 55.4 53.2 93% 29.96 0.0
01 21:35 Calm 10.00 Fair CLR 56.1 53.4 91% 29.96 0.0
01 21:15 Calm 10.00 Fair CLR 56.7 52.3 86% 29.96 0.0
01 20:55 E 3 10.00 Fair CLR 57 51.8 83% 29.95 0.0
01 20:35 E 3 10.00 Fair CLR 57.6 52.5 83% 29.95 0.0
01 20:15 Calm 10.00 Fair CLR 58.1 52.2 81% 29.94 0.0
01 19:55 Calm 10.00 Fair CLR 57.7 53.4 86% 29.93 0.0
01 19:35 Calm 10.00 Fair CLR 58.6 52.2 79% 29.92 0.0
01 19:15 Calm 10.00 Fair CLR 59.9 50.9 72% 29.92 0.0
01 18:55 Calm 10.00 Fair CLR 60.6 52.2 66.2 60.6 74% 29.92 0.0
01 18:35 Calm 10.00 Fair CLR 61 53.1 75% 29.92 0.0
01 18:15 Calm 10.00 Fair CLR 62.6 49.1 62% 29.92 0.0
01 17:55 Calm 10.00 Fair CLR 63.3 45.5 52% 29.92 0.0
01 17:35 Calm 10.00 Fair CLR 63.3 46.8 55% 29.91 0.0
01 17:15 N 5 10.00 Fair CLR 63.7 46.4 54% 29.9 0.0
01 16:55 NW 8 10.00 Fair CLR 64.4 46.4 52% 29.9 0.0
01 16:35 NW 6 10.00 Fair CLR 64.8 47.3 53% 29.91 0.0
01 16:15 N 7 10.00 Fair CLR 64.4 48 55% 29.92 0.0
01 15:55 NW 9 10.00 Fair CLR 64.6 46.4 52% 29.93 0.0
01 15:35 NW 7 10.00 Fair CLR 64.8 46 51% 29.94 0.0
01 15:15 NW 7 10.00 Partly Cloudy SCT120 65.7 46.4 50% 29.94 0.0
01 14:55 NW 6 10.00 Partly Cloudy SCT120 65.8 43.5 45% 29.95 0.0
01 14:35 N 5 10.00 Partly Cloudy SCT120 65.8 40.8 40% 29.96 0.0
01 14:15 N 7 10.00 Partly Cloudy SCT120 65.3 39.9 40% 29.96 0.0
01 13:55 N 8 10.00 Fair CLR 65.3 39.6 39% 29.96 0.0
01 13:35 NE 6 10.00 Fair CLR 65.8 41.5 41% 29.96 0.0
01 13:15 NE 5 10.00 Fair CLR 65.1 44.6 48% 29.96 0.0
01 12:55 NE 5 10.00 Fair CLR 64.6 46 64.9 47.1 51% 29.96 0.0
01 12:35 Calm 10.00 Fair CLR 63.7 46.8 54% 29.97 0.0
01 12:15 NE 3 10.00 Fair CLR 64 46.4 53% 29.97 0.0
01 11:55 NE 5 10.00 Fair CLR 63.9 47.1 55% 29.97 0.0
01 11:35 E 5 10.00 Fair CLR 63.3 46 54% 29.97 0.0
01 11:15 Calm 10.00 Fair CLR 61.9 48 61% 29.98 0.0
01 10:55 Calm 10.00 Fair CLR 60.6 47.3 62% 30 0.0
01 10:35 Calm 10.00 Fair CLR 60.4 47.5 63% 29.99 0.0
01 10:15 Calm 10.00 Fair CLR 59.7 46.2 61% 29.99 0.0
01 09:55 Calm 10.00 Fair CLR 59.2 45.7 61% 29.99 0.0
01 09:35 Calm 10.00 Fair CLR 57.9 46.4 66% 29.99 0.0
01 09:15 Calm 10.00 Fair CLR 56.3 46 69% 30 0.0
01 08:55 Calm 10.00 Fair CLR 55.8 44.2 65% 29.99 0.0
01 08:35 Calm 10.00 Fair CLR 53.8 44.8 72% 29.97 0.0
01 08:15 Calm 10.00 Fair CLR 51.8 46.8 83% 29.97 0.0
01 07:55 Calm 10.00 Fair CLR 50.2 47.7 91% 29.97 0.0
01 07:35 Calm 10.00 Fair CLR 48.9 47.5 95% 29.98 0.0
01 07:15 Calm 10.00 Fair CLR 48.2 46.9 95% 29.97 0.0
01 06:55 Calm 10.00 Fair CLR 47.3 46.6 51.8 45.3 97% 29.96 0.0
01 06:35 Calm 10.00 Fair CLR 46 45.5 98% 29.95 0.0
01 06:15 Calm 10.00 Fair CLR 45.5 45 98% 29.94 0.0
01 05:55 Calm 10.00 Fair CLR 46.6 46 98% 29.93 0.0
01 05:35 Calm 10.00 Partly Cloudy SCT120 46 45.3 97% 29.93 0.0
01 05:15 Calm 10.00 Mostly Cloudy BKN120 47.5 46.8 97% 29.93 0.0
01 04:55 Calm 10.00 Overcast OVC120 47.8 46.9 97% 29.93 0.0
01 04:35 Calm 10.00 Overcast OVC120 48.4 47.1 95% 29.94 0.0
01 04:15 Calm 10.00 Mostly Cloudy BKN120 49.3 48 95% 29.94 0.0
01 03:55 Calm 10.00 Overcast OVC120 50.4 47.7 91% 29.94 0.0
01 03:35 Calm 10.00 Overcast OVC120 50.4 47.5 90% 29.94 0.0
01 03:15 Calm 10.00 Overcast OVC120 49.5 48.2 95% 29.94 0.0
01 02:55 N 3 10.00 Overcast OVC120 48.9 48 97% 29.93 0.0
01 02:35 Calm 10.00 Mostly Cloudy BKN120 48.7 48 97% 29.93 0.0
01 02:15 Calm 10.00 Mostly Cloudy BKN120 49.6 48.7 97% 29.94 0.0
01 01:55 Calm 10.00 Partly Cloudy SCT120 50.9 49.3 94% 29.95 0.0
01 01:35 Calm 10.00 Fair CLR 50.5 49.3 95% 29.95 0.0
01 01:15 Calm 10.00 Fair CLR 51.4 50 95% 29.95 0.0
01 00:55 Calm 10.00 Fair CLR 51.1 50.2 61.3 51.1 97% 29.96 0.0
01 00:35 Calm 10.00 Fair CLR 51.8 50.2 94% 29.95 0.0
01 00:15 Calm 10.00 Fair CLR 52.7 50.2 91% 29.97 0.0
30 23:55 Calm 10.00 Fair CLR 52.9 50.2 91% 29.96 0.0
30 23:35 Calm 10.00 Fair CLR 52.3 50.7 94% 29.95 0.0
30 23:15 Calm 10.00 Fair CLR 53.2 49.3 87% 29.95 0.0
30 22:55 Calm 10.00 Fair CLR 52.7 50.4 92% 29.96 0.0
30 22:35 Calm 10.00 Fair CLR 52.9 50.2 91% 29.96 0.0
30 22:15 Calm 10.00 Fair CLR 52.9 50.2 91% 29.97 0.0
30 21:55 Calm 10.00 Fair CLR 53.4 49.5 87% 29.96 0.0
30 21:35 Calm 10.00 Fair CLR 53.6 50.4 89% 29.96 0.0
30 21:15 Calm 10.00 Fair CLR 54.7 49.8 84% 29.96 0.0
30 20:55 Calm 10.00 Fair CLR 54.5 49.8 84% 29.95 0.0
30 20:35 Calm 10.00 Fair CLR 54.5 49.6 84% 29.94 0.0
30 20:15 E 5 10.00 Fair CLR 56.5 46.8 70% 29.94 0.0
30 19:55 E 3 10.00 Fair CLR 57.2 48 72% 29.94 0.0
30 19:35 Calm 10.00 Fair CLR 59 46.9 64% 29.93 0.0
30 19:15 Calm 10.00 Fair CLR 60.1 45.7 59% 29.92 0.0
30 18:55 N 3 10.00 Fair CLR 61.5 44.6 67.6 61.3 54% 29.92 0.0
30 18:35 N 5 10.00 Fair CLR 62.8 45 52% 29.91 0.0
30 18:15 N 5 10.00 Fair CLR 63.7 44.2 49% 29.92 0.0
30 17:55 NW 5 10.00 Fair CLR 64.4 44.1 48% 29.92 0.0
30 17:35 NW 6 10.00 Fair CLR 65.3 43 44% 29.91 0.0
30 17:15 NW 10 10.00 Fair CLR 65.1 43.5 46% 29.92 0.0
30 16:55 N 10 10.00 Fair CLR 65.8 44.1 45% 29.92 0.0
30 16:35 N 7 10.00 Fair CLR 65.3 44.6 47% 29.91 0.0
30 16:15 N 7 10.00 Fair CLR 65.7 44.4 46% 29.92 0.0
30 15:55 N 9 10.00 Fair CLR 66 45.1 47% 29.92 0.0
30 15:35 N 7 10.00 Fair CLR 66.4 45.3 47% 29.92 0.0
30 15:15 N 13 10.00 Fair CLR 66.2 45.5 47% 29.93 0.0
30 14:55 N 13 10.00 Fair CLR 67.1 45.9 47% 29.93 0.0
30 14:35 N 9 G 17 10.00 Fair CLR 67.1 45.9 47% 29.93 0.0
30 14:15 N 10 G 18 10.00 Fair CLR 66.7 47.1 49% 29.94 0.0
30 13:55 NW 12 10.00 Fair CLR 66.9 46 47% 29.94 0.0
30 13:35 N 15 10.00 Fair CLR 67.1 47.3 49% 29.93 0.0
30 13:15 N 9 10.00 Fair CLR 66.9 47.8 50% 29.93 0.0
30 12:55 N 8 10.00 Fair CLR 66.2 47.5 66.7 55.4 51% 29.93 0.0
30 12:35 N 10 G 16 10.00 Fair CLR 65.8 47.1 51% 29.94 0.0
30 12:15 NW 9 G 17 10.00 Fair CLR 66.2 49.3 55% 29.94 0.0
30 11:55 N 10 10.00 Fair CLR 65.1 49.6 57% 29.95 0.0
30 11:35 NW 13 4.00 Fair with Haze CLR 64.9 49.6 58% 29.95 0.0
30 11:15 N 13 G 18 10.00 Fair CLR 63.7 48.7 58% 29.95 0.0
30 10:55 N 14 10.00 Fair CLR 63.3 49.1 60% 29.95 0.0
30 10:35 N 15 G 20 10.00 Fair CLR 62.1 48.7 62% 29.95 0.0
30 10:15 N 16 G 20 10.00 Fair CLR 62.1 50 65% 29.95 0.0
30 09:55 N 9 10.00 Fair CLR 61.9 50.5 67% 29.94 0.0
30 09:35 N 14 G 18 10.00 Partly Cloudy SCT026 61.2 50.5 68% 29.94 0.0
30 09:15 N 15 10.00 Fair CLR 59.9 50.9 72% 29.94 0.0
30 08:55 N 9 10.00 Fair CLR 59.2 52 77% 29.94 0.0
30 08:35 N 12 10.00 Fair CLR 57.4 50.5 78% 29.94 0.0
30 08:15 N 8 10.00 Fair CLR 57.6 51.8 81% 29.94 0.0
30 07:55 N 10 10.00 Fair CLR 56.8 51.1 81% 29.94 0.0
30 07:35 N 5 10.00 Fair CLR 56.8 53.2 88% 29.93 0.0
30 07:15 N 8 10.00 Partly Cloudy SCT120 55.6 52.3 89% 29.93 0.0
30 06:55 NE 5 10.00 Fair CLR 55.6 52.9 64.8 55.2 91% 29.92 0.0 0.01 0.53
30 06:35 N 3 10.00 Fair CLR 55.4 52.9 91% 29.9 0.0
30 06:15 N 6 10.00 Partly Cloudy SCT018 55.9 54.1 94% 29.89 0.0
30 05:55 Calm 7.00 Partly Cloudy SCT016 56.5 55.8 97% 29.88 0.0
30 05:35 Calm 10.00 Partly Cloudy SCT016 57 56.1 97% 29.88 0.0
30 05:15 Calm 10.00 Light Rain SCT100 SCT120 57 55.8 96% 29.88 0.0
30 04:55 E 6 10.00 Light Rain SCT015 BKN100 OVC120 57.4 56.3 96% 29.85 0.0 0.02
30 04:35 E 5 10.00 Light Rain SCT017 OVC100 57.6 55.9 94% 29.87 0.0 0.02
30 04:15 N 3 7.00 Light Rain OVC090 57.2 56.5 97% 29.85 0.0 0.01
30 03:55 NE 9 7.00 Light Rain OVC090 57.4 56.5 97% 29.87 0.0 0.07 0.49
30 03:35 NE 7 7.00 Light Rain OVC100 57.4 56.7 97% 29.89 0.0 0.04
30 03:15 Calm 7.00 Light Rain OVC090 57.6 56.5 96% 29.9 0.0 0.02
30 02:55 NE 3 5.00 Rain Fog/Mist OVC090 57.4 56.5 97% 29.9 0.0 0.1
30 02:35 NE 9 5.00 Rain Fog/Mist SCT036 SCT050 OVC090 57.7 56.7 96% 29.89 0.0 0.06
30 02:15 NE 5 7.00 Rain Fog/Mist SCT034 BKN047 OVC090 58.5 57.2 96% 29.91 0.0 0.02
30 01:55 E 6 7.00 Rain Fog/Mist BKN036 OVC046 59 57.6 95% 29.92 0.0 0.3
30 01:35 N 8 7.00 Rain BKN045 OVC050 59.5 57.6 93% 29.92 0.0 0.25
30 01:15 N 8 7.00 Thunderstorm Rain Fog/Mist SCT023 BKN050 OVC060 60.8 57.7 90% 29.91 0.0 0.18
30 00:55 SW 18 7.00 Thunderstorm in Vicinity SCT023 OVC039 64.6 57.9 72.1 64 79% 29.93 0.0
30 00:35 N 8 10.00 Overcast BKN039 OVC046 64.2 57.9 80% 29.88 0.0
30 00:15 N 7 10.00 Overcast BKN039 OVC047 64.2 59 83% 29.87 0.0
29 23:55 N 9 10.00 Mostly Cloudy BKN037 BKN043 BKN090 64.4 59.5 84% 29.87 0.0
29 23:35 N 8 10.00 Overcast OVC039 65.5 59.7 82% 29.88 0.0
29 23:15 NE 9 10.00 Mostly Cloudy SCT019 BKN042 BKN050 65.8 60.1 82% 29.9 0.0
29 22:55 N 6 10.00 Partly Cloudy SCT048 SCT060 65.7 60.6 84% 29.9 0.0
29 22:35 N 6 10.00 Partly Cloudy SCT060 66.4 60.8 82% 29.91 0.0
29 22:15 N 5 10.00 Fair CLR 66.6 61.3 83% 29.9 0.0
29 21:55 N 8 10.00 Fair CLR 66.6 62.1 86% 29.9 0.0
29 21:35 N 6 10.00 Fair CLR 66.9 63 87% 29.9 0.0
29 21:15 N 7 10.00 Partly Cloudy SCT050 67.5 63.1 86% 29.9 0.0
29 20:55 NE 5 10.00 Partly Cloudy SCT050 68.7 63.1 82% 29.9 0.0
29 20:35 NE 3 10.00 Fair CLR 68.9 63 81% 29.88 0.0
29 20:15 N 6 10.00 Fair CLR 69.8 63.3 80% 29.87 0.0
29 19:55 N 6 10.00 Fair CLR 70.2 64.6 83% 29.86 0.0
29 19:35 N 6 10.00 Partly Cloudy SCT048 71.2 65.1 81% 29.85 0.0
29 19:15 Calm 10.00 Mostly Cloudy BKN050 72 66.9 84% 29.85 0.0
29 18:55 Calm 10.00 Fair CLR 71.8 68.2 80.1 71.8 88% 29.85 0.0
29 18:35 W 3 10.00 Fair CLR 74.3 66 75% 29.85 0.0
29 18:15 W 3 10.00 Fair CLR 74.8 65.3 72% 29.84 0.0
29 17:55 W 5 10.00 Fair CLR 75.7 65.5 71% 77 29.83 0.0
29 17:35 W 3 10.00 Fair CLR 76.3 65.7 70% 78 29.85 0.0
29 17:15 NW 5 10.00 Fair CLR 76.6 65.8 69% 78 29.85 0.0
29 16:55 NW 8 10.00 Mostly Cloudy SCT036 BKN046 76.5 65.7 69% 78 29.84 0.0
29 16:35 W 7 10.00 Mostly Cloudy BKN036 BKN043 BKN050 77.5 65.5 67% 79 29.85 0.0
29 16:15 W 12 10.00 Mostly Cloudy SCT036 BKN042 BKN050 78.6 66.7 67% 81 29.85 0.0
29 15:35 W 7 10.00 Partly Cloudy SCT034 SCT040 SCT065 77.7 65.5 66% 80 29.86 0.0
29 15:15 W 10 10.00 Partly Cloudy SCT033 SCT055 SCT070 78.8 66.2 65% 81 29.86 0.0
29 14:55 W 13 G 20 10.00 Mostly Cloudy SCT030 SCT038 BKN060 77.9 65.8 67% 80 29.88 0.0
Date Time (cdt) Wind (mph) Vis. (mi.) Weather Sky Cond. Air Dwpt Max. Min. Relative Humidity Wind Chill (°F) Heat Index (°F) altimeter (in) sea level (mb) 1 hr 3 hr 6 hr
6 hour
Temperature (ºF) Pressure Precipitation (in)